Arlington, Vermont
Current Conditions -  °F | °C
As of 2:32 AM on Saturday 25 Oct 2014 (Local Time) from KDDH Reporting Station
Haze Haze  
Wind Chill: 37°   Ceiling: 200
Heat Index: 37°   Visibility: 0.75mi
Dew Point: 36°   Wind: 0mph
Humidity: 96%   Direction: NA
Pressure: 29.83"   Gusts: NA
Location:  43.07°N, 73.15°W
Report Text: KDDH 250632Z AUTO 00000KT 3/4SM BR VV002 03/02 A2983 RMK AO2 T00280022
Loading
Personal Weather Stations






























Interactive Weather Map
Tropical Storm Tracking
New forecast layout! Learn more

10-Day Weather Forecast

Advertisements
Track Severe Weather on mobile